sensor_id;sensor_type;location;lat;lon;timestamp;pressure;altitude;pressure_sealevel;temperature;humidity
51178;BME280;37243;49.814;8.652;2022-09-16T00:01:23;99710.38;;;27.50;43.24
51178;BME280;37243;49.814;8.652;2022-09-16T00:03:54;99705.22;;;27.48;43.14
51178;BME280;37243;49.814;8.652;2022-09-16T00:06:24;99721.75;;;27.48;43.06
51178;BME280;37243;49.814;8.652;2022-09-16T00:08:54;99710.72;;;27.48;42.63
51178;BME280;37243;49.814;8.652;2022-09-16T00:11:25;99712.34;;;27.49;43.27
51178;BME280;37243;49.814;8.652;2022-09-16T00:13:54;99710.72;;;27.48;42.67
51178;BME280;37243;49.814;8.652;2022-09-16T00:16:24;99705.66;;;27.50;43.16
51178;BME280;37243;49.814;8.652;2022-09-16T00:18:53;99708.06;;;27.52;42.59
51178;BME280;37243;49.814;8.652;2022-09-16T00:21:23;99706.13;;;27.52;43.23
51178;BME280;37243;49.814;8.652;2022-09-16T00:23:51;99705.22;;;27.48;43.37
51178;BME280;37243;49.814;8.652;2022-09-16T00:26:20;99709.91;;;27.48;42.72
51178;BME280;37243;49.814;8.652;2022-09-16T00:28:50;99711.53;;;27.49;42.92
51178;BME280;37243;49.814;8.652;2022-09-16T00:31:19;99703.81;;;27.54;42.88
51178;BME280;37243;49.814;8.652;2022-09-16T00:33:47;99700.78;;;27.59;42.43
51178;BME280;37243;49.814;8.652;2022-09-16T00:36:17;99704.09;;;27.65;43.02
51178;BME280;37243;49.814;8.652;2022-09-16T00:38:49;99706.50;;;27.67;42.86
51178;BME280;37243;49.814;8.652;2022-09-16T00:41:20;99704.91;;;27.66;42.59
51178;BME280;37243;49.814;8.652;2022-09-16T00:43:54;99699.38;;;27.66;42.16
51178;BME280;37243;49.814;8.652;2022-09-16T00:46:29;99697.81;;;27.65;42.89
51178;BME280;37243;49.814;8.652;2022-09-16T00:49:02;99693.06;;;27.65;42.93
51178;BME280;37243;49.814;8.652;2022-09-16T00:51:32;99696.19;;;27.64;42.61
51178;BME280;37243;49.814;8.652;2022-09-16T00:54:02;99695.38;;;27.63;42.48
51178;BME280;37243;49.814;8.652;2022-09-16T00:56:36;99695.53;;;27.54;42.84
51178;BME280;37243;49.814;8.652;2022-09-16T00:59:10;99692.25;;;27.49;43.27
51178;BME280;37243;49.814;8.652;2022-09-16T01:01:42;99690.28;;;27.49;43.19
51178;BME280;37243;49.814;8.652;2022-09-16T01:04:14;99690.63;;;27.48;42.53
51178;BME280;37243;49.814;8.652;2022-09-16T01:06:44;99690.63;;;27.48;43.10
51178;BME280;37243;49.814;8.652;2022-09-16T01:09:14;99695.00;;;27.49;43.34
51178;BME280;37243;49.814;8.652;2022-09-16T01:11:42;99686.72;;;27.49;42.77
51178;BME280;37243;49.814;8.652;2022-09-16T01:14:14;99684.69;;;27.46;42.90
51178;BME280;37243;49.814;8.652;2022-09-16T01:17:19;99691.00;;;27.46;42.55
51178;BME280;37243;49.814;8.652;2022-09-16T01:23:35;99688.56;;;27.45;42.64
51178;BME280;37243;49.814;8.652;2022-09-16T01:26:21;99689.03;;;27.47;42.49
51178;BME280;37243;49.814;8.652;2022-09-16T01:29:18;99692.59;;;27.47;42.31
51178;BME280;37243;49.814;8.652;2022-09-16T01:31:59;99689.38;;;27.45;42.75
51178;BME280;37243;49.814;8.652;2022-09-16T01:34:36;99695.69;;;27.46;42.51
51178;BME280;37243;49.814;8.652;2022-09-16T01:37:12;99690.63;;;27.48;42.33
51178;BME280;37243;49.814;8.652;2022-09-16T01:39:47;99701.19;;;27.46;42.71
51178;BME280;37243;49.814;8.652;2022-09-16T01:42:21;99693.75;;;27.46;42.77
51178;BME280;37243;49.814;8.652;2022-09-16T01:45:00;99696.50;;;27.46;42.18
51178;BME280;37243;49.814;8.652;2022-09-16T01:47:37;99701.56;;;27.44;42.34
51178;BME280;37243;49.814;8.652;2022-09-16T01:50:16;99703.63;;;27.47;42.50
51178;BME280;37243;49.814;8.652;2022-09-16T01:52:53;99704.16;;;27.53;42.46
51178;BME280;37243;49.814;8.652;2022-09-16T01:55:27;99702.66;;;27.55;42.59
51178;BME280;37243;49.814;8.652;2022-09-16T01:58:00;99704.72;;;27.58;42.32
51178;BME280;37243;49.814;8.652;2022-09-16T02:00:31;99705.59;;;27.63;42.25
51178;BME280;37243;49.814;8.652;2022-09-16T02:03:05;99702.41;;;27.60;42.59
51178;BME280;37243;49.814;8.652;2022-09-16T02:05:37;99696.19;;;27.64;42.58
51178;BME280;37243;49.814;8.652;2022-09-16T02:08:09;99697.81;;;27.65;41.80
51178;BME280;37243;49.814;8.652;2022-09-16T02:10:41;99707.31;;;27.67;41.64
51178;BME280;37243;49.814;8.652;2022-09-16T02:13:13;99703.81;;;27.54;42.18
51178;BME280;37243;49.814;8.652;2022-09-16T02:15:46;99696.13;;;27.48;42.14
51178;BME280;37243;49.814;8.652;2022-09-16T02:18:21;99700.88;;;27.47;42.64
51178;BME280;37243;49.814;8.652;2022-09-16T02:20:52;99690.63;;;27.48;42.84
51178;BME280;37243;49.814;8.652;2022-09-16T02:23:26;99683.53;;;27.47;42.17
51178;BME280;37243;49.814;8.652;2022-09-16T02:25:58;99682.72;;;27.46;42.43
51178;BME280;37243;49.814;8.652;2022-09-16T02:28:30;99691.81;;;27.47;42.64
51178;BME280;37243;49.814;8.652;2022-09-16T02:31:04;99690.28;;;27.49;41.96
51178;BME280;37243;49.814;8.652;2022-09-16T02:33:40;99694.19;;;27.48;42.01
51178;BME280;37243;49.814;8.652;2022-09-16T02:36:13;99695.69;;;27.46;42.54
51178;BME280;37243;49.814;8.652;2022-09-16T02:38:47;99691.81;;;27.47;42.11
51178;BME280;37243;49.814;8.652;2022-09-16T02:41:17;99698.13;;;27.47;42.30
51178;BME280;37243;49.814;8.652;2022-09-16T02:43:45;99707.16;;;27.48;42.32
51178;BME280;37243;49.814;8.652;2022-09-16T02:46:18;99703.16;;;27.45;42.73
51178;BME280;37243;49.814;8.652;2022-09-16T02:48:58;99700.41;;;27.45;42.38
51178;BME280;37243;49.814;8.652;2022-09-16T02:51:37;99697.19;;;27.43;42.10
51178;BME280;37243;49.814;8.652;2022-09-16T02:54:11;99688.94;;;27.43;42.56
51178;BME280;37243;49.814;8.652;2022-09-16T02:56:43;99671.28;;;27.44;42.37
51178;BME280;37243;49.814;8.652;2022-09-16T02:59:11;99675.59;;;27.45;42.37
51178;BME280;37243;49.814;8.652;2022-09-16T03:01:42;99689.38;;;27.45;42.75
51178;BME280;37243;49.814;8.652;2022-09-16T03:04:15;99704.31;;;27.44;42.59
51178;BME280;37243;49.814;8.652;2022-09-16T03:06:44;99700.88;;;27.47;42.39
51178;BME280;37243;49.814;8.652;2022-09-16T03:09:14;99688.56;;;27.45;42.12
51178;BME280;37243;49.814;8.652;2022-09-16T03:12:13;99696.84;;;27.45;42.54
51178;BME280;37243;49.814;8.652;2022-09-16T03:15:03;99693.63;;;27.43;42.65
51178;BME280;37243;49.814;8.652;2022-09-16T03:17:51;99698.34;;;27.42;42.62
51178;BME280;37243;49.814;8.652;2022-09-16T03:20:32;99696.06;;;27.44;42.03
51178;BME280;37243;49.814;8.652;2022-09-16T03:23:10;99691.69;;;27.43;42.69
51178;BME280;37243;49.814;8.652;2022-09-16T03:25:46;99694.09;;;27.45;42.57
51178;BME280;37243;49.814;8.652;2022-09-16T03:28:18;99692.59;;;27.47;42.25
51178;BME280;37243;49.814;8.652;2022-09-16T03:30:54;99692.84;;;27.42;41.97
51178;BME280;37243;49.814;8.652;2022-09-16T03:33:30;99696.06;;;27.44;42.63
51178;BME280;37243;49.814;8.652;2022-09-16T03:36:05;99693.31;;;27.44;42.23
51178;BME280;37243;49.814;8.652;2022-09-16T03:38:37;99691.69;;;27.43;42.30
51178;BME280;37243;49.814;8.652;2022-09-16T03:41:07;99686.19;;;27.43;42.07
51178;BME280;37243;49.814;8.652;2022-09-16T03:43:37;99694.88;;;27.45;41.80
51178;BME280;37243;49.814;8.652;2022-09-16T03:46:13;99686.19;;;27.43;42.48
51178;BME280;37243;49.814;8.652;2022-09-16T03:48:41;99676.63;;;27.53;42.35
51178;BME280;37243;49.814;8.652;2022-09-16T03:51:13;99671.19;;;27.56;42.20
51178;BME280;37243;49.814;8.652;2022-09-16T03:53:41;99678.75;;;27.59;41.92
51178;BME280;37243;49.814;8.652;2022-09-16T03:56:09;99679.22;;;27.62;41.61
51178;BME280;37243;49.814;8.652;2022-09-16T03:58:38;99677.22;;;27.62;41.94
51178;BME280;37243;49.814;8.652;2022-09-16T04:01:06;99678.84;;;27.63;41.25
51178;BME280;37243;49.814;8.652;2022-09-16T04:03:34;99683.22;;;27.64;41.52
51178;BME280;37243;49.814;8.652;2022-09-16T04:06:03;99682.03;;;27.65;41.44
51178;BME280;37243;49.814;8.652;2022-09-16T04:08:34;99689.06;;;27.63;41.59
51178;BME280;37243;49.814;8.652;2022-09-16T04:11:05;99678.56;;;27.52;41.46
51178;BME280;37243;49.814;8.652;2022-09-16T04:13:34;99687.88;;;27.48;41.87
51178;BME280;37243;49.814;8.652;2022-09-16T04:16:03;99679.97;;;27.46;42.02
51178;BME280;37243;49.814;8.652;2022-09-16T04:18:33;99677.22;;;27.46;42.38
51178;BME280;37243;49.814;8.652;2022-09-16T04:21:03;99671.72;;;27.46;41.92
51178;BME280;37243;49.814;8.652;2022-09-16T04:23:34;99664.16;;;27.43;41.82
51178;BME280;37243;49.814;8.652;2022-09-16T04:26:02;99664.59;;;27.45;42.07
51178;BME280;37243;49.814;8.652;2022-09-16T04:28:32;99659.06;;;27.45;41.64
51178;BME280;37243;49.814;8.652;2022-09-16T04:31:01;99660.25;;;27.44;41.62
51178;BME280;37243;49.814;8.652;2022-09-16T04:33:31;99667.72;;;27.44;42.15
51178;BME280;37243;49.814;8.652;2022-09-16T04:36:03;99669.66;;;27.43;41.78
51178;BME280;37243;49.814;8.652;2022-09-16T04:38:35;99664.16;;;27.43;42.02
51178;BME280;37243;49.814;8.652;2022-09-16T04:41:06;99671.28;;;27.44;42.37
51178;BME280;37243;49.814;8.652;2022-09-16T04:43:35;99671.72;;;27.46;42.34
51178;BME280;37243;49.814;8.652;2022-09-16T04:46:04;99666.53;;;27.45;41.95
51178;BME280;37243;49.814;8.652;2022-09-16T04:48:33;99663.78;;;27.45;42.04
51178;BME280;37243;49.814;8.652;2022-09-16T04:51:03;99670.91;;;27.46;41.59
51178;BME280;37243;49.814;8.652;2022-09-16T04:53:35;99665.75;;;27.44;42.16
51178;BME280;37243;49.814;8.652;2022-09-16T04:56:05;99659.44;;;27.44;42.01
51178;BME280;37243;49.814;8.652;2022-09-16T04:58:34;99662.53;;;27.42;42.09
51178;BME280;37243;49.814;8.652;2022-09-16T05:01:05;99654.28;;;27.42;42.41
51178;BME280;37243;49.814;8.652;2022-09-16T05:03:37;99663.72;;;27.41;42.22
51178;BME280;37243;49.814;8.652;2022-09-16T05:06:08;99660.81;;;27.38;41.91
51178;BME280;37243;49.814;8.652;2022-09-16T05:08:39;99664.38;;;27.38;42.17
51178;BME280;37243;49.814;8.652;2022-09-16T05:11:09;99661.63;;;27.38;42.41
51178;BME280;37243;49.814;8.652;2022-09-16T05:13:39;99665.63;;;27.41;42.11
51178;BME280;37243;49.814;8.652;2022-09-16T05:16:09;99660.00;;;27.37;41.94
51178;BME280;37243;49.814;8.652;2022-09-16T05:18:38;99661.63;;;27.38;42.17
51178;BME280;37243;49.814;8.652;2022-09-16T05:21:09;99660.44;;;27.39;42.41
51178;BME280;37243;49.814;8.652;2022-09-16T05:23:41;99660.81;;;27.38;41.81
51178;BME280;37243;49.814;8.652;2022-09-16T05:26:11;99667.13;;;27.38;41.75
51178;BME280;37243;49.814;8.652;2022-09-16T05:28:40;99670.66;;;27.39;41.69
51178;BME280;37243;49.814;8.652;2022-09-16T05:31:09;99672.63;;;27.38;41.63
51178;BME280;37243;49.814;8.652;2022-09-16T05:33:39;99661.63;;;27.38;42.11
51178;BME280;37243;49.814;8.652;2022-09-16T05:36:09;99663.56;;;27.38;42.17
51178;BME280;37243;49.814;8.652;2022-09-16T05:38:40;99668.16;;;27.46;42.29
51178;BME280;37243;49.814;8.652;2022-09-16T05:41:09;99663.53;;;27.50;42.20
51178;BME280;37243;49.814;8.652;2022-09-16T05:43:38;99662.84;;;27.53;41.65
51178;BME280;37243;49.814;8.652;2022-09-16T05:46:07;99666.84;;;27.55;41.49
51178;BME280;37243;49.814;8.652;2022-09-16T05:48:35;99671.19;;;27.56;41.25
51178;BME280;37243;49.814;8.652;2022-09-16T05:51:05;99671.19;;;27.56;41.79
51178;BME280;37243;49.814;8.652;2022-09-16T05:53:33;99675.91;;;27.56;42.02
51178;BME280;37243;49.814;8.652;2022-09-16T05:56:06;99677.31;;;27.50;41.38
51178;BME280;37243;49.814;8.652;2022-09-16T05:58:36;99672.75;;;27.42;42.26
51178;BME280;37243;49.814;8.652;2022-09-16T06:01:06;99672.16;;;27.36;42.25
51178;BME280;37243;49.814;8.652;2022-09-16T06:03:36;99671.38;;;27.36;42.02
51178;BME280;37243;49.814;8.652;2022-09-16T06:06:06;99674.91;;;27.36;42.45
51178;BME280;37243;49.814;8.652;2022-09-16T06:08:39;99675.72;;;27.37;42.33
51178;BME280;37243;49.814;8.652;2022-09-16T06:11:11;99676.91;;;27.36;41.87
51178;BME280;37243;49.814;8.652;2022-09-16T06:13:40;99681.69;;;27.39;41.80
51178;BME280;37243;49.814;8.652;2022-09-16T06:16:09;99680.44;;;27.36;41.83
51178;BME280;37243;49.814;8.652;2022-09-16T06:18:37;99681.25;;;27.37;42.29
51178;BME280;37243;49.814;8.652;2022-09-16T06:21:07;99672.16;;;27.36;42.54
51178;BME280;37243;49.814;8.652;2022-09-16T06:23:37;99674.47;;;27.34;41.77
51178;BME280;37243;49.814;8.652;2022-09-16T06:26:07;99672.63;;;27.38;42.34
51178;BME280;37243;49.814;8.652;2022-09-16T06:28:38;99685.16;;;27.36;41.38
51178;BME280;37243;49.814;8.652;2022-09-16T06:31:09;99685.16;;;27.36;42.07
51178;BME280;37243;49.814;8.652;2022-09-16T06:33:38;99681.59;;;27.35;41.83
51178;BME280;37243;49.814;8.652;2022-09-16T06:36:10;99685.16;;;27.36;41.98
51178;BME280;37243;49.814;8.652;2022-09-16T06:38:39;99680.44;;;27.36;41.88
51178;BME280;37243;49.814;8.652;2022-09-16T06:41:09;99674.59;;;27.38;41.30
51178;BME280;37243;49.814;8.652;2022-09-16T06:43:40;99669.88;;;27.38;42.03
51178;BME280;37243;49.814;8.652;2022-09-16T06:46:11;99672.63;;;27.38;41.62
51178;BME280;37243;49.814;8.652;2022-09-16T06:48:41;99678.47;;;27.37;41.79
51178;BME280;37243;49.814;8.652;2022-09-16T06:51:12;99676.97;;;27.39;41.55
51178;BME280;37243;49.814;8.652;2022-09-16T06:53:41;99676.97;;;27.39;41.80
51178;BME280;37243;49.814;8.652;2022-09-16T06:56:12;99675.84;;;27.40;41.68
51178;BME280;37243;49.814;8.652;2022-09-16T06:58:45;99667.56;;;27.40;40.89
51178;BME280;37243;49.814;8.652;2022-09-16T07:01:17;99672.63;;;27.38;41.54
51178;BME280;37243;49.814;8.652;2022-09-16T07:03:47;99667.91;;;27.39;41.23
51178;BME280;37243;49.814;8.652;2022-09-16T07:06:17;99667.47;;;27.37;41.13
51178;BME280;37243;49.814;8.652;2022-09-16T07:08:46;99671.47;;;27.39;41.26
51178;BME280;37243;49.814;8.652;2022-09-16T07:11:16;99672.16;;;27.36;41.04
51178;BME280;37243;49.814;8.652;2022-09-16T07:13:48;99669.06;;;27.38;41.25
51178;BME280;37243;49.814;8.652;2022-09-16T07:16:18;99669.88;;;27.38;40.84
51178;BME280;37243;49.814;8.652;2022-09-16T07:18:50;99668.72;;;27.39;40.62
51178;BME280;37243;49.814;8.652;2022-09-16T07:21:21;99672.97;;;27.37;41.08
51178;BME280;37243;49.814;8.652;2022-09-16T07:23:50;99670.59;;;27.35;40.41
51178;BME280;37243;49.814;8.652;2022-09-16T07:26:23;99682.84;;;27.38;40.60
51178;BME280;37243;49.814;8.652;2022-09-16T07:28:58;99685.94;;;27.36;40.98
51178;BME280;37243;49.814;8.652;2022-09-16T07:31:28;99689.41;;;27.33;40.41
51178;BME280;37243;49.814;8.652;2022-09-16T07:33:58;99691.44;;;27.36;40.82
51178;BME280;37243;49.814;8.652;2022-09-16T07:36:29;99691.81;;;27.35;40.93
51178;BME280;37243;49.814;8.652;2022-09-16T07:38:58;99691.81;;;27.35;40.43
51178;BME280;37243;49.814;8.652;2022-09-16T07:41:28;99686.63;;;27.33;40.13
51178;BME280;37243;49.814;8.652;2022-09-16T07:44:00;99688.25;;;27.34;40.60
51178;BME280;37243;49.814;8.652;2022-09-16T07:46:30;99685.94;;;27.36;40.43
51178;BME280;37243;49.814;8.652;2022-09-16T07:49:00;99700.06;;;27.35;40.72
51178;BME280;37243;49.814;8.652;2022-09-16T07:51:29;99700.78;;;27.32;40.34
51178;BME280;37243;49.814;8.652;2022-09-16T07:53:59;99688.25;;;27.34;39.96
51178;BME280;37243;49.814;8.652;2022-09-16T07:56:30;99697.06;;;27.40;39.85
51178;BME280;37243;49.814;8.652;2022-09-16T07:59:02;99692.94;;;27.46;40.26
51178;BME280;37243;49.814;8.652;2022-09-16T08:01:32;99695.09;;;27.52;39.43
51178;BME280;37243;49.814;8.652;2022-09-16T08:04:01;99685.75;;;27.57;40.13
51178;BME280;37243;49.814;8.652;2022-09-16T08:06:30;99690.47;;;27.56;39.65
51178;BME280;37243;49.814;8.652;2022-09-16T08:09:00;99689.31;;;27.57;39.39
51178;BME280;37243;49.814;8.652;2022-09-16T08:11:28;99695.28;;;27.59;39.86
51178;BME280;37243;49.814;8.652;2022-09-16T08:13:57;99696.09;;;27.60;39.45
51178;BME280;37243;49.814;8.652;2022-09-16T08:16:29;99691.38;;;27.60;39.95
51178;BME280;37243;49.814;8.652;2022-09-16T08:18:57;99701.06;;;27.54;40.26
51178;BME280;37243;49.814;8.652;2022-09-16T08:21:27;99705.09;;;27.45;40.54
51178;BME280;37243;49.814;8.652;2022-09-16T08:23:56;99705.09;;;27.45;40.07
51178;BME280;37243;49.814;8.652;2022-09-16T08:26:25;99711.41;;;27.45;40.18
51178;BME280;37243;49.814;8.652;2022-09-16T08:28:53;99708.22;;;27.43;40.71
51178;BME280;37243;49.814;8.652;2022-09-16T08:31:21;99704.66;;;27.43;40.05
51178;BME280;37243;49.814;8.652;2022-09-16T08:33:53;99707.06;;;27.44;40.82
51178;BME280;37243;49.814;8.652;2022-09-16T08:36:22;99709.84;;;27.44;40.10
51178;BME280;37243;49.814;8.652;2022-09-16T08:38:54;99706.59;;;27.42;40.86
51178;BME280;37243;49.814;8.652;2022-09-16T08:41:43;99713.72;;;27.43;40.28
51178;BME280;37243;49.814;8.652;2022-09-16T08:44:21;99715.34;;;27.44;40.19
51178;BME280;37243;49.814;8.652;2022-09-16T08:46:54;99709.84;;;27.44;40.08
51178;BME280;37243;49.814;8.652;2022-09-16T08:49:31;99706.59;;;27.42;40.62
51178;BME280;37243;49.814;8.652;2022-09-16T08:52:04;99707.84;;;27.45;40.06
51178;BME280;37243;49.814;8.652;2022-09-16T08:54:39;99709.84;;;27.44;40.44
51178;BME280;37243;49.814;8.652;2022-09-16T08:57:12;99707.84;;;27.45;40.50
51178;BME280;37243;49.814;8.652;2022-09-16T08:59:43;99705.91;;;27.45;40.83
51178;BME280;37243;49.814;8.652;2022-09-16T09:02:24;99711.09;;;27.47;40.78
51178;BME280;37243;49.814;8.652;2022-09-16T09:04:57;99710.97;;;27.43;40.63
51178;BME280;37243;49.814;8.652;2022-09-16T09:07:31;99702.72;;;27.43;40.37
51178;BME280;37243;49.814;8.652;2022-09-16T09:10:12;99707.53;;;27.46;40.77
51178;BME280;37243;49.814;8.652;2022-09-16T09:12:46;99699.69;;;27.48;40.51
51178;BME280;37243;49.814;8.652;2022-09-16T09:15:28;99704.41;;;27.48;40.57
51178;BME280;37243;49.814;8.652;2022-09-16T09:18:20;99692.59;;;27.47;40.48
51178;BME280;37243;49.814;8.652;2022-09-16T09:21:08;99696.94;;;27.48;40.24
51178;BME280;37243;49.814;8.652;2022-09-16T09:23:46;99698.56;;;27.49;40.96
51178;BME280;37243;49.814;8.652;2022-09-16T09:26:20;99698.88;;;27.48;40.35
51178;BME280;37243;49.814;8.652;2022-09-16T09:29:06;99700.78;;;27.59;40.05
51178;BME280;37243;49.814;8.652;2022-09-16T09:31:42;99688.34;;;27.66;40.30
51178;BME280;37243;49.814;8.652;2022-09-16T09:34:26;99697.09;;;27.68;40.26
51178;BME280;37243;49.814;8.652;2022-09-16T09:37:11;99696.72;;;27.69;40.17
51178;BME280;37243;49.814;8.652;2022-09-16T09:39:51;99693.16;;;27.69;39.99
51178;BME280;37243;49.814;8.652;2022-09-16T09:42:27;99691.31;;;27.73;40.04
51178;BME280;37243;49.814;8.652;2022-09-16T09:44:59;99688.91;;;27.71;39.71
51178;BME280;37243;49.814;8.652;2022-09-16T09:47:33;99691.66;;;27.71;39.70
51178;BME280;37243;49.814;8.652;2022-09-16T09:50:12;99686.69;;;27.61;39.94
51178;BME280;37243;49.814;8.652;2022-09-16T09:52:49;99681.88;;;27.58;40.34
51178;BME280;37243;49.814;8.652;2022-09-16T09:55:22;99687.00;;;27.59;40.43
51178;BME280;37243;49.814;8.652;2022-09-16T09:58:12;99681.75;;;27.54;40.21
51178;BME280;37243;49.814;8.652;2022-09-16T10:00:43;99673.59;;;27.58;40.65
51178;BME280;37243;49.814;8.652;2022-09-16T10:03:12;99670.03;;;27.57;40.11
51178;BME280;37243;49.814;8.652;2022-09-16T10:05:42;99668.91;;;27.58;40.63
51178;BME280;37243;49.814;8.652;2022-09-16T10:08:22;99679.44;;;27.56;40.93
51178;BME280;37243;49.814;8.652;2022-09-16T10:10:53;99669.59;;;27.55;40.04
51178;BME280;37243;49.814;8.652;2022-09-16T10:13:23;99668.09;;;27.58;40.15
51178;BME280;37243;49.814;8.652;2022-09-16T10:15:53;99676.69;;;27.56;40.19
51178;BME280;37243;49.814;8.652;2022-09-16T10:18:25;99668.44;;;27.56;40.16
51178;BME280;37243;49.814;8.652;2022-09-16T10:20:58;99675.56;;;27.57;40.05
51178;BME280;37243;49.814;8.652;2022-09-16T10:23:30;99673.59;;;27.58;40.05
51178;BME280;37243;49.814;8.652;2022-09-16T10:26:03;99661.41;;;27.59;40.71
51178;BME280;37243;49.814;8.652;2022-09-16T10:28:33;99664.97;;;27.59;40.00
51178;BME280;37243;49.814;8.652;2022-09-16T10:31:01;99663.81;;;27.60;40.37
51178;BME280;37243;49.814;8.652;2022-09-16T10:33:32;99658.66;;;27.59;40.13
51178;BME280;37243;49.814;8.652;2022-09-16T10:36:04;99660.25;;;27.60;40.01
51178;BME280;37243;49.814;8.652;2022-09-16T10:38:38;99656.09;;;27.66;39.86
51178;BME280;37243;49.814;8.652;2022-09-16T10:41:08;99663.28;;;27.71;39.70
51178;BME280;37243;49.814;8.652;2022-09-16T10:43:47;99659.81;;;27.74;40.01
51178;BME280;37243;49.814;8.652;2022-09-16T10:46:16;99666.94;;;27.75;39.76
51178;BME280;37243;49.814;8.652;2022-09-16T10:48:47;99667.38;;;27.77;39.76
51178;BME280;37243;49.814;8.652;2022-09-16T10:51:21;99661.09;;;27.76;40.23
51178;BME280;37243;49.814;8.652;2022-09-16T10:53:55;99661.09;;;27.76;39.89
51178;BME280;37243;49.814;8.652;2022-09-16T10:56:25;99658.78;;;27.78;40.18
51178;BME280;37243;49.814;8.652;2022-09-16T10:59:02;99656.38;;;27.77;40.14
51178;BME280;37243;49.814;8.652;2022-09-16T11:01:41;99647.66;;;27.75;39.81
51178;BME280;37243;49.814;8.652;2022-09-16T11:04:24;99654.84;;;27.64;40.57
51178;BME280;37243;49.814;8.652;2022-09-16T11:07:09;99648.81;;;27.58;39.84
51178;BME280;37243;49.814;8.652;2022-09-16T11:09:50;99652.00;;;27.60;40.69
51178;BME280;37243;49.814;8.652;2022-09-16T11:12:51;99656.69;;;27.59;40.26
51178;BME280;37243;49.814;8.652;2022-09-16T11:15:31;99659.13;;;27.61;40.12
51178;BME280;37243;49.814;8.652;2022-09-16T11:18:12;99664.97;;;27.59;40.54
51178;BME280;37243;49.814;8.652;2022-09-16T11:20:59;99672.09;;;27.60;40.39
51178;BME280;37243;49.814;8.652;2022-09-16T11:23:41;99657.06;;;27.58;39.87
51178;BME280;37243;49.814;8.652;2022-09-16T11:26:21;99655.13;;;27.58;39.94
51178;BME280;37243;49.814;8.652;2022-09-16T11:29:09;99647.28;;;27.60;40.66
51178;BME280;37243;49.814;8.652;2022-09-16T11:31:48;99659.81;;;27.58;40.65
51178;BME280;37243;49.814;8.652;2022-09-16T11:34:30;99666.13;;;27.58;40.26
51178;BME280;37243;49.814;8.652;2022-09-16T11:37:06;99664.16;;;27.59;40.67
51178;BME280;37243;49.814;8.652;2022-09-16T11:39:45;99659.28;;;27.68;39.68
51178;BME280;37243;49.814;8.652;2022-09-16T11:42:28;99661.81;;;27.73;40.19
51178;BME280;37243;49.814;8.652;2022-09-16T11:45:05;99661.88;;;27.77;39.93
51178;BME280;37243;49.814;8.652;2022-09-16T11:47:52;99657.63;;;27.79;39.76
51178;BME280;37243;49.814;8.652;2022-09-16T11:50:33;99650.94;;;27.80;39.31
51178;BME280;37243;49.814;8.652;2022-09-16T11:53:24;99651.75;;;27.81;39.71
51178;BME280;37243;49.814;8.652;2022-09-16T11:55:57;99652.56;;;27.81;40.14
51178;BME280;37243;49.814;8.652;2022-09-16T11:58:36;99655.31;;;27.81;40.13
51178;BME280;37243;49.814;8.652;2022-09-16T12:01:14;99654.16;;;27.82;39.50
51178;BME280;37243;49.814;8.652;2022-09-16T12:03:49;99658.88;;;27.82;39.82
51178;BME280;37243;49.814;8.652;2022-09-16T12:06:23;99657.78;;;27.71;39.70
51178;BME280;37243;49.814;8.652;2022-09-16T12:08:55;99644.97;;;27.63;40.20
51178;BME280;37243;49.814;8.652;2022-09-16T12:11:27;99650.47;;;27.63;40.20
51178;BME280;37243;49.814;8.652;2022-09-16T12:14:08;99653.25;;;27.63;40.49
51178;BME280;37243;49.814;8.652;2022-09-16T12:16:42;99641.41;;;27.62;40.39
51178;BME280;37243;49.814;8.652;2022-09-16T12:19:16;99648.19;;;27.65;40.54
51178;BME280;37243;49.814;8.652;2022-09-16T12:21:50;99650.47;;;27.63;40.53
51178;BME280;37243;49.814;8.652;2022-09-16T12:24:25;99649.78;;;27.66;40.56
51178;BME280;37243;49.814;8.652;2022-09-16T12:27:01;99644.97;;;27.63;40.08
51178;BME280;37243;49.814;8.652;2022-09-16T12:29:39;99650.47;;;27.63;40.67
51178;BME280;37243;49.814;8.652;2022-09-16T12:32:14;99653.59;;;27.61;40.30
51178;BME280;37243;49.814;8.652;2022-09-16T12:34:49;99651.28;;;27.63;39.92
51178;BME280;37243;49.814;8.652;2022-09-16T12:37:29;99654.41;;;27.62;40.48
51178;BME280;37243;49.814;8.652;2022-09-16T12:39:59;99655.19;;;27.62;39.86
51178;BME280;37243;49.814;8.652;2022-09-16T12:48:51;99655.22;;;27.78;40.19
51178;BME280;37243;49.814;8.652;2022-09-16T12:51:37;99656.84;;;27.79;39.89
51178;BME280;37243;49.814;8.652;2022-09-16T12:54:35;99656.84;;;27.79;39.45
51178;BME280;37243;49.814;8.652;2022-09-16T12:57:19;99663.94;;;27.80;40.26
51178;BME280;37243;49.814;8.652;2022-09-16T13:00:04;99659.22;;;27.80;40.15
51178;BME280;37243;49.814;8.652;2022-09-16T13:02:42;99645.09;;;27.82;39.95
51178;BME280;37243;49.814;8.652;2022-09-16T13:05:19;99651.75;;;27.81;39.76
51178;BME280;37243;49.814;8.652;2022-09-16T13:07:51;99649.97;;;27.73;40.33
51178;BME280;37243;49.814;8.652;2022-09-16T13:10:24;99651.50;;;27.70;39.95
51178;BME280;37243;49.814;8.652;2022-09-16T13:12:55;99649.88;;;27.69;39.71
51178;BME280;37243;49.814;8.652;2022-09-16T13:15:27;99649.78;;;27.66;39.98
51178;BME280;37243;49.814;8.652;2022-09-16T13:18:21;99642.69;;;27.65;40.37
51178;BME280;37243;49.814;8.652;2022-09-16T13:20:54;99648.97;;;27.65;40.25
51178;BME280;37243;49.814;8.652;2022-09-16T13:23:27;99645.88;;;27.67;39.99
51178;BME280;37243;49.814;8.652;2022-09-16T13:26:00;99643.47;;;27.65;39.97
51178;BME280;37243;49.814;8.652;2022-09-16T13:28:35;99648.19;;;27.65;40.28
51178;BME280;37243;49.814;8.652;2022-09-16T13:31:18;99644.25;;;27.66;39.86
51178;BME280;37243;49.814;8.652;2022-09-16T13:34:02;99645.06;;;27.66;39.87
51178;BME280;37243;49.814;8.652;2022-09-16T13:36:32;99651.72;;;27.65;40.17
51178;BME280;37243;49.814;8.652;2022-09-16T13:39:03;99646.59;;;27.64;39.86
51178;BME280;37243;49.814;8.652;2022-09-16T13:41:34;99648.97;;;27.65;39.69
51178;BME280;37243;49.814;8.652;2022-09-16T13:44:29;99646.22;;;27.65;39.60